Time;durP1;ratioP1;P1;durP2;ratioP2;P2;SDS_P1;SDS_P2;PMS_P1;PMS_P2;Temp;Humidity;BMP_temperature;BMP_pressure;BME280_temperature;BME280_humidity;BME280_pressure;Samples;Min_cycle;Max_cycle;Signal;HPM_P1;HPM_P2
2022/05/21 00:01:49;;;;;;;4.22;2.10;;;18.60;68.80;;;;;;4972281;28;20469;-66
2022/05/21 00:04:16;;;;;;;4.00;2.13;;;18.60;69.20;;;;;;4974817;28;20113;-64
2022/05/21 00:06:45;;;;;;;6.10;2.53;;;18.60;69.40;;;;;;4961748;28;20042;-67
2022/05/21 00:09:12;;;;;;;4.32;1.92;;;18.60;69.50;;;;;;4978330;28;20039;-65
2022/05/21 00:11:40;;;;;;;4.35;2.38;;;18.50;69.40;;;;;;4977344;28;20074;-64
2022/05/21 00:14:07;;;;;;;3.15;1.58;;;18.50;69.20;;;;;;4979242;28;20054;-64
2022/05/21 00:16:34;;;;;;;3.30;1.80;;;18.40;69.10;;;;;;4966802;28;20050;-64
2022/05/21 00:19:01;;;;;;;3.35;1.92;;;18.40;69.00;;;;;;4979358;28;20094;-63
2022/05/21 00:21:29;;;;;;;8.45;1.95;;;18.30;68.70;;;;;;4979471;28;20053;-65
2022/05/21 00:23:57;;;;;;;2.22;1.60;;;18.30;68.70;;;;;;4980218;28;20397;-64
2022/05/21 00:26:25;;;;;;;3.50;1.75;;;18.30;68.40;;;;;;4984178;28;20054;-64
2022/05/21 00:28:52;;;;;;;3.80;2.17;;;18.20;68.30;;;;;;4961448;28;20085;-65
2022/05/21 00:31:20;;;;;;;3.63;1.42;;;18.30;68.50;;;;;;4976085;28;20138;-64
2022/05/21 00:33:48;;;;;;;5.35;1.63;;;18.30;68.70;;;;;;4981747;28;20157;-65
2022/05/21 00:36:15;;;;;;;2.80;1.63;;;18.30;68.60;;;;;;4978399;28;20448;-66
2022/05/21 00:38:43;;;;;;;2.60;1.40;;;18.20;68.70;;;;;;4981133;28;20389;-65
2022/05/21 00:41:15;;;;;;;2.45;1.55;;;18.20;68.60;;;;;;4979074;28;20068;-65
2022/05/21 00:43:46;;;;;;;2.15;1.50;;;18.10;68.60;;;;;;4977022;28;20562;-65
2022/05/21 00:46:16;;;;;;;4.20;1.50;;;18.10;68.60;;;;;;4966838;28;20053;-65
2022/05/21 00:48:45;;;;;;;2.72;1.48;;;18.00;67.90;;;;;;4980318;28;20050;-66
2022/05/21 00:51:17;;;;;;;2.05;1.15;;;18.10;67.60;;;;;;4977902;28;20070;-63
2022/05/21 00:53:45;;;;;;;3.22;1.52;;;18.00;67.60;;;;;;4980465;28;20050;-65
2022/05/21 00:56:16;;;;;;;4.20;1.83;;;17.90;67.20;;;;;;4977225;28;20066;-65
2022/05/21 01:01:35;;;;;;;1.77;1.00;;;17.90;67.20;;;;;;4976949;28;20056;-64
2022/05/21 01:04:02;;;;;;;2.83;1.23;;;17.80;67.40;;;;;;4980979;28;20049;-65
2022/05/21 01:06:30;;;;;;;2.78;1.48;;;17.80;67.50;;;;;;4975871;28;20076;-63
2022/05/21 01:08:57;;;;;;;2.88;1.50;;;17.70;67.80;;;;;;4978541;28;20042;-63
2022/05/21 01:11:25;;;;;;;1.90;1.40;;;17.60;67.90;;;;;;4979030;28;20506;-63
2022/05/21 01:13:52;;;;;;;5.55;1.60;;;17.70;68.30;;;;;;4980731;28;20504;-63
2022/05/21 01:16:19;;;;;;;3.40;1.30;;;17.60;68.20;;;;;;4978492;28;20049;-65
2022/05/21 01:18:46;;;;;;;2.92;1.55;;;17.60;68.30;;;;;;4982724;28;20077;-64
2022/05/21 01:21:13;;;;;;;2.38;1.20;;;17.60;68.00;;;;;;4979712;28;20485;-65
2022/05/21 01:23:42;;;;;;;2.15;1.20;;;17.50;68.60;;;;;;4981738;28;20450;-65
2022/05/21 01:26:13;;;;;;;3.08;1.58;;;17.50;68.50;;;;;;4979190;28;20082;-65
2022/05/21 01:28:41;;;;;;;3.22;1.27;;;17.50;68.60;;;;;;4982350;28;20137;-63
2022/05/21 01:31:09;;;;;;;4.63;1.60;;;17.60;68.80;;;;;;4982482;28;20058;-62
2022/05/21 01:33:44;;;;;;;3.08;1.58;;;17.60;69.00;;;;;;4982412;28;20038;-65
2022/05/21 01:36:13;;;;;;;2.47;1.10;;;17.60;69.00;;;;;;4981977;28;20800;-66
2022/05/21 01:38:41;;;;;;;3.77;1.50;;;17.60;68.70;;;;;;4982656;28;20401;-64
2022/05/21 01:41:09;;;;;;;2.65;1.33;;;17.60;68.80;;;;;;4979850;28;20485;-65
2022/05/21 01:46:22;;;;;;;3.75;1.48;;;17.50;69.50;;;;;;4979041;28;20053;-64
2022/05/21 01:48:49;;;;;;;3.72;1.50;;;17.50;69.10;;;;;;4977069;28;20131;-64
2022/05/21 01:51:16;;;;;;;3.35;1.42;;;17.50;68.90;;;;;;4981255;28;20051;-65
2022/05/21 01:53:45;;;;;;;4.53;1.33;;;17.40;68.80;;;;;;4980330;28;20050;-63
2022/05/21 01:56:13;;;;;;;3.65;1.17;;;17.50;68.60;;;;;;4980807;28;20045;-64
2022/05/21 01:58:41;;;;;;;4.60;1.33;;;17.40;68.20;;;;;;4978751;28;20057;-64
2022/05/21 02:01:09;;;;;;;5.13;1.48;;;17.30;68.00;;;;;;4973882;28;20039;-64
2022/05/21 02:03:36;;;;;;;2.53;1.02;;;17.30;68.10;;;;;;4974341;28;20046;-66
2022/05/21 02:06:06;;;;;;;2.05;1.13;;;17.30;68.00;;;;;;4978513;28;20121;-64
2022/05/21 02:08:33;;;;;;;3.70;1.35;;;17.20;67.90;;;;;;4975550;28;20161;-64
2022/05/21 02:11:01;;;;;;;3.25;1.30;;;17.20;68.00;;;;;;4978524;28;20039;-65
2022/05/21 02:13:31;;;;;;;3.17;1.30;;;17.20;68.10;;;;;;4977579;28;20059;-67
2022/05/21 02:15:58;;;;;;;2.03;1.05;;;17.10;68.10;;;;;;4975906;28;20436;-64
2022/05/21 02:18:26;;;;;;;3.30;1.05;;;17.20;68.20;;;;;;4979718;28;20058;-63
2022/05/21 02:20:54;;;;;;;2.95;1.30;;;17.20;68.10;;;;;;4977399;28;20535;-64
2022/05/21 02:23:22;;;;;;;2.92;1.13;;;17.20;68.20;;;;;;4978384;28;20094;-64
2022/05/21 02:25:49;;;;;;;2.05;1.10;;;17.10;68.00;;;;;;4978720;28;20064;-64
2022/05/21 02:28:17;;;;;;;3.78;1.60;;;17.20;68.00;;;;;;4979043;28;20038;-65
2022/05/21 02:30:45;;;;;;;2.47;1.10;;;17.20;68.10;;;;;;4973281;28;20052;-64
2022/05/21 02:33:12;;;;;;;5.78;1.20;;;17.10;68.00;;;;;;4977566;28;20046;-62
2022/05/21 02:35:40;;;;;;;3.10;1.15;;;17.10;67.80;;;;;;4976767;28;20065;-65
2022/05/21 02:40:51;;;;;;;4.15;0.90;;;17.20;67.90;;;;;;4979063;28;20043;-65
2022/05/21 02:43:20;;;;;;;3.28;1.33;;;17.10;67.70;;;;;;4977034;28;20046;-65
2022/05/21 02:45:47;;;;;;;4.80;1.25;;;17.10;67.70;;;;;;4973006;28;20133;-66
2022/05/21 02:48:14;;;;;;;3.78;1.08;;;17.10;67.90;;;;;;4976904;28;20075;-65
2022/05/21 02:50:42;;;;;;;2.63;1.00;;;17.10;67.80;;;;;;4977559;28;20066;-64
2022/05/21 02:53:16;;;;;;;3.70;1.42;;;17.10;67.80;;;;;;4978879;28;20065;-64
2022/05/21 02:55:44;;;;;;;2.67;1.25;;;17.00;67.70;;;;;;4979916;28;20053;-63
2022/05/21 02:58:11;;;;;;;2.83;1.33;;;17.10;67.70;;;;;;4982680;28;20053;-65
2022/05/21 03:00:40;;;;;;;4.40;1.20;;;17.00;67.40;;;;;;4980205;28;20148;-64
2022/05/21 03:03:06;;;;;;;2.45;1.35;;;17.00;67.40;;;;;;4982743;28;20127;-64
2022/05/21 03:05:34;;;;;;;3.17;1.10;;;16.90;67.30;;;;;;4964919;28;20042;-63
2022/05/21 03:10:20;;;;;;;2.80;1.20;;;16.90;67.40;;;;;;4982510;28;20070;-64
2022/05/21 03:10:47;;;;;;;2.47;1.30;;;16.90;67.50;;;;;;4980743;28;20050;-66
2022/05/21 03:13:14;;;;;;;3.60;1.40;;;16.90;67.50;;;;;;4981490;28;20066;-64
2022/05/21 03:15:42;;;;;;;3.50;1.10;;;16.90;67.40;;;;;;4983322;28;20150;-64
2022/05/21 03:18:11;;;;;;;2.67;1.30;;;16.90;67.40;;;;;;4981949;28;20077;-63
2022/05/21 03:20:39;;;;;;;4.37;1.33;;;16.80;67.50;;;;;;4979131;28;20076;-64
2022/05/21 03:23:08;;;;;;;3.72;1.30;;;16.90;67.70;;;;;;4983291;28;20442;-62
2022/05/21 03:25:37;;;;;;;2.20;1.15;;;16.80;67.50;;;;;;4981692;28;20062;-64
2022/05/21 03:28:05;;;;;;;3.92;1.50;;;16.80;67.50;;;;;;4981385;28;20039;-64
2022/05/21 03:30:33;;;;;;;2.85;1.30;;;16.70;67.60;;;;;;4981880;28;20145;-64
2022/05/21 03:33:02;;;;;;;3.97;1.45;;;16.70;67.60;;;;;;4982738;28;20712;-64
2022/05/21 03:35:30;;;;;;;3.03;1.30;;;16.70;67.50;;;;;;4984889;28;20161;-64
2022/05/21 03:37:56;;;;;;;3.85;1.60;;;16.70;67.60;;;;;;4979738;28;20389;-64
2022/05/21 03:40:26;;;;;;;4.20;1.50;;;16.70;67.80;;;;;;4980049;28;20057;-63
2022/05/21 03:42:54;;;;;;;2.73;1.40;;;16.70;67.30;;;;;;4981154;28;20042;-63
2022/05/21 03:45:22;;;;;;;4.88;1.48;;;16.70;67.30;;;;;;4981913;28;20867;-65
2022/05/21 03:47:48;;;;;;;3.15;1.45;;;16.70;67.30;;;;;;4980950;28;20496;-65
2022/05/21 03:50:21;;;;;;;4.40;1.60;;;16.60;67.40;;;;;;4979682;28;21985;-64
2022/05/21 03:52:48;;;;;;;2.95;1.10;;;16.60;67.40;;;;;;4980130;28;20050;-65
2022/05/21 03:55:15;;;;;;;4.53;1.27;;;16.60;67.30;;;;;;4981769;28;20496;-65
2022/05/21 03:57:43;;;;;;;4.15;1.35;;;16.60;67.50;;;;;;4979050;28;20109;-64
2022/05/21 04:00:14;;;;;;;3.33;1.35;;;16.60;67.60;;;;;;4976432;28;20066;-63
2022/05/21 04:02:43;;;;;;;2.85;1.17;;;16.60;67.90;;;;;;4980925;28;20050;-64
2022/05/21 04:05:11;;;;;;;2.45;1.33;;;16.60;67.80;;;;;;4979364;28;20126;-65
2022/05/21 04:07:40;;;;;;;4.38;1.45;;;16.50;68.00;;;;;;4979029;28;20042;-63
2022/05/21 04:10:10;;;;;;;1.90;1.00;;;16.50;67.90;;;;;;4982510;28;20534;-64
2022/05/21 04:12:37;;;;;;;3.42;1.17;;;16.50;68.00;;;;;;4982522;28;20654;-65
2022/05/21 04:15:06;;;;;;;3.55;1.23;;;16.50;68.10;;;;;;4982063;28;20046;-63
2022/05/21 04:17:33;;;;;;;3.13;1.30;;;16.40;68.10;;;;;;4983002;28;20704;-65
2022/05/21 04:20:01;;;;;;;5.45;1.70;;;16.50;68.20;;;;;;4982264;28;20046;-64
2022/05/21 04:22:28;;;;;;;4.05;1.30;;;16.50;68.30;;;;;;4982262;28;20042;-66
2022/05/21 04:24:57;;;;;;;3.15;1.45;;;16.40;68.40;;;;;;4981962;28;20618;-66
2022/05/21 04:27:24;;;;;;;3.80;1.52;;;16.40;68.50;;;;;;4982016;28;20070;-63
2022/05/21 04:29:52;;;;;;;2.95;1.25;;;16.50;68.50;;;;;;4981012;28;20090;-65
2022/05/21 04:32:19;;;;;;;2.97;1.10;;;16.40;68.40;;;;;;4981502;28;20065;-63
2022/05/21 04:34:47;;;;;;;5.38;1.42;;;16.40;68.30;;;;;;4981939;28;20057;-62
2022/05/21 04:37:14;;;;;;;3.40;1.42;;;16.40;68.20;;;;;;4980402;28;20038;-63
2022/05/21 04:39:40;;;;;;;3.80;1.50;;;16.40;68.00;;;;;;4980624;28;20464;-63
2022/05/21 04:42:09;;;;;;;2.92;1.30;;;16.40;68.20;;;;;;4982226;28;20047;-65
2022/05/21 04:44:37;;;;;;;4.30;1.45;;;16.40;68.00;;;;;;4978937;28;20504;-64
2022/05/21 04:47:06;;;;;;;4.03;1.60;;;16.40;67.90;;;;;;4981297;28;20046;-65
2022/05/21 04:49:33;;;;;;;3.28;1.70;;;16.40;67.90;;;;;;4979615;28;20114;-64
2022/05/21 04:52:02;;;;;;;3.20;1.15;;;16.40;68.00;;;;;;4966979;28;20061;-65
2022/05/21 04:54:30;;;;;;;5.93;1.67;;;16.40;68.00;;;;;;4967545;28;20046;-65
2022/05/21 04:56:57;;;;;;;1.92;1.20;;;16.40;68.10;;;;;;4982111;28;20106;-63
2022/05/21 04:59:25;;;;;;;4.90;1.38;;;16.40;68.30;;;;;;4982942;28;20049;-63
2022/05/21 05:01:52;;;;;;;2.90;1.40;;;16.40;68.70;;;;;;4980647;28;20057;-64
2022/05/21 05:04:19;;;;;;;2.05;1.20;;;16.40;68.80;;;;;;4981975;28;20140;-63
2022/05/21 05:06:46;;;;;;;4.40;1.35;;;16.40;68.70;;;;;;4978656;28;20089;-63
2022/05/21 05:09:15;;;;;;;2.33;1.05;;;16.40;68.80;;;;;;4979699;28;20427;-65
2022/05/21 05:11:42;;;;;;;3.40;1.30;;;16.30;68.70;;;;;;4981027;28;20110;-64
2022/05/21 05:14:09;;;;;;;7.95;1.40;;;16.20;68.70;;;;;;4979562;28;20046;-63
2022/05/21 05:16:37;;;;;;;2.75;1.02;;;16.20;69.00;;;;;;4977587;28;20047;-63
2022/05/21 05:19:04;;;;;;;3.90;1.10;;;16.30;69.10;;;;;;4982144;28;20058;-63
2022/05/21 05:21:32;;;;;;;3.65;1.40;;;16.30;69.30;;;;;;4981168;28;20483;-64
2022/05/21 05:23:59;;;;;;;2.83;1.10;;;16.30;69.20;;;;;;4978514;28;20130;-63
2022/05/21 05:26:26;;;;;;;2.63;1.20;;;16.30;69.30;;;;;;4978328;28;20047;-63
2022/05/21 05:28:53;;;;;;;2.33;1.10;;;16.30;69.20;;;;;;4977825;28;20477;-65
2022/05/21 05:31:19;;;;;;;2.95;1.58;;;16.30;69.40;;;;;;4967741;28;20408;-63
2022/05/21 05:33:48;;;;;;;3.63;1.42;;;16.30;69.80;;;;;;4982411;28;20124;-63
2022/05/21 05:36:16;;;;;;;2.88;1.30;;;16.40;69.70;;;;;;4979128;28;20034;-65
2022/05/21 05:38:43;;;;;;;4.60;1.35;;;16.40;69.80;;;;;;4980879;28;20049;-65
2022/05/21 05:41:10;;;;;;;3.88;1.27;;;16.40;69.60;;;;;;4981005;28;20066;-63
2022/05/21 05:43:37;;;;;;;2.33;1.25;;;16.60;70.10;;;;;;4982086;28;20884;-63
2022/05/21 05:46:04;;;;;;;2.78;1.40;;;16.60;69.10;;;;;;4982182;28;20054;-64
2022/05/21 05:48:31;;;;;;;5.05;1.38;;;16.80;68.60;;;;;;4980353;28;20049;-65
2022/05/21 05:51:02;;;;;;;2.65;1.30;;;16.80;68.60;;;;;;4981669;28;20961;-64
2022/05/21 05:53:29;;;;;;;6.10;1.80;;;16.80;68.70;;;;;;4981704;28;20050;-65
2022/05/21 05:55:56;;;;;;;2.45;1.20;;;16.80;68.60;;;;;;4979986;28;20065;-64
2022/05/21 06:01:10;;;;;;;3.35;1.35;;;16.80;69.00;;;;;;4975720;28;20039;-64
2022/05/21 06:03:37;;;;;;;3.35;1.40;;;16.90;69.20;;;;;;4978404;28;20038;-64
2022/05/21 06:06:06;;;;;;;5.47;2.15;;;16.90;69.00;;;;;;4979878;28;20093;-63
2022/05/21 06:08:33;;;;;;;5.35;1.75;;;16.90;68.90;;;;;;4980409;28;20497;-66
2022/05/21 06:11:00;;;;;;;3.35;1.45;;;16.90;69.00;;;;;;4978769;28;20035;-66
2022/05/21 06:13:27;;;;;;;2.97;1.60;;;17.00;69.10;;;;;;4979708;28;20066;-65
2022/05/21 06:15:57;;;;;;;3.60;1.60;;;17.00;69.30;;;;;;4977314;28;20652;-65
2022/05/21 06:18:24;;;;;;;5.07;1.85;;;17.00;68.90;;;;;;4978718;28;20050;-64
2022/05/21 06:20:51;;;;;;;4.57;1.92;;;17.00;68.90;;;;;;4978739;28;20038;-63
2022/05/21 06:23:20;;;;;;;5.50;2.17;;;17.10;68.80;;;;;;4980206;28;20043;-65
2022/05/21 06:25:48;;;;;;;4.60;2.10;;;17.00;68.90;;;;;;4979025;28;20051;-66
2022/05/21 06:28:15;;;;;;;4.28;1.95;;;17.00;69.00;;;;;;4980338;28;20073;-64
2022/05/21 06:30:43;;;;;;;4.78;1.83;;;17.10;69.20;;;;;;4983226;28;20069;-65
2022/05/21 06:33:13;;;;;;;;;;;17.10;68.10;;;;;;4985101;28;20085;-65
2022/05/21 06:35:40;;;;;;;4.07;1.77;;;16.90;68.30;;;;;;4984102;28;19929;-64
2022/05/21 06:38:08;;;;;;;3.45;1.95;;;17.00;68.40;;;;;;4983976;28;20461;-63
2022/05/21 06:40:36;;;;;;;6.05;1.80;;;17.00;68.50;;;;;;4985410;28;20113;-64
2022/05/21 06:43:03;;;;;;;3.90;1.42;;;17.00;68.50;;;;;;4985085;28;20042;-63
2022/05/21 06:45:33;;;;;;;6.07;1.83;;;17.00;68.00;;;;;;4982208;28;20043;-64
2022/05/21 06:48:04;;;;;;;4.70;1.58;;;17.10;67.80;;;;;;4983068;28;20125;-65
2022/05/21 06:50:31;;;;;;;3.45;1.25;;;17.10;67.80;;;;;;4981397;28;20097;-64
2022/05/21 06:52:58;;;;;;;5.15;1.08;;;17.10;67.70;;;;;;4983830;28;20042;-64
2022/05/21 06:55:26;;;;;;;2.55;0.93;;;17.20;67.00;;;;;;4984968;28;20039;-65
2022/05/21 06:57:54;;;;;;;3.13;0.90;;;17.20;67.10;;;;;;4985629;28;20047;-64
2022/05/21 07:00:22;;;;;;;4.78;1.50;;;17.40;66.90;;;;;;4980684;28;20539;-66
2022/05/21 07:02:49;;;;;;;2.25;1.00;;;17.40;65.90;;;;;;4980024;28;20445;-64
2022/05/21 07:08:19;;;;;;;2.40;1.42;;;17.40;65.80;;;;;;4930408;28;20051;-65
2022/05/21 07:10:46;;;;;;;4.25;1.45;;;17.40;65.90;;;;;;4984879;28;20047;-63
2022/05/21 07:13:15;;;;;;;1.88;0.95;;;17.40;66.00;;;;;;4983424;28;20054;-67
2022/05/21 07:15:42;;;;;;;2.22;0.90;;;17.30;66.30;;;;;;4981169;28;20477;-66
2022/05/21 07:18:09;;;;;;;2.30;0.88;;;17.30;66.30;;;;;;4981551;28;20049;-66
2022/05/21 07:20:36;;;;;;;1.75;1.02;;;17.40;66.30;;;;;;4984202;28;20499;-65
2022/05/21 07:23:03;;;;;;;2.88;0.75;;;17.50;66.20;;;;;;4982483;28;20042;-66
2022/05/21 07:25:31;;;;;;;2.80;1.00;;;17.60;65.90;;;;;;4981472;28;20176;-64
2022/05/21 07:27:59;;;;;;;1.77;0.73;;;17.50;65.40;;;;;;4983716;28;20038;-66
2022/05/21 07:30:27;;;;;;;4.93;1.02;;;17.60;65.40;;;;;;4979499;28;20046;-65
2022/05/21 07:32:55;;;;;;;2.08;0.77;;;17.60;65.20;;;;;;4984408;28;20043;-64
2022/05/21 07:35:23;;;;;;;5.97;0.82;;;17.60;64.90;;;;;;4983372;28;20062;-66
2022/05/21 07:37:51;;;;;;;2.70;1.05;;;17.60;65.10;;;;;;4982761;28;20053;-65
2022/05/21 07:40:20;;;;;;;3.60;0.82;;;17.70;65.20;;;;;;4982164;28;20068;-64
2022/05/21 07:42:47;;;;;;;2.53;0.85;;;17.70;65.20;;;;;;4983352;28;20130;-67
2022/05/21 07:45:17;;;;;;;3.97;1.10;;;17.70;64.80;;;;;;4983755;28;20050;-64
2022/05/21 07:47:45;;;;;;;2.17;1.05;;;17.80;64.70;;;;;;4981595;28;20117;-66
2022/05/21 07:50:14;;;;;;;3.40;0.75;;;17.90;64.30;;;;;;4980104;28;20089;-64
2022/05/21 07:52:42;;;;;;;3.07;0.60;;;18.00;64.00;;;;;;4982010;28;20403;-66
2022/05/21 07:55:10;;;;;;;2.20;0.50;;;18.20;64.50;;;;;;4982064;28;20117;-66
2022/05/21 07:57:37;;;;;;;1.10;0.43;;;18.50;62.40;;;;;;4983988;28;20054;-64
2022/05/21 08:00:05;;;;;;;4.50;1.00;;;18.50;62.20;;;;;;4980181;28;20045;-70
2022/05/21 08:02:42;;;;;;;3.17;0.60;;;18.60;62.30;;;;;;4981686;28;20573;-63
2022/05/21 08:05:10;;;;;;;;;;;18.50;62.10;;;;;;4980959;28;20046;-65
2022/05/21 08:07:37;;;;;;;3.13;0.60;;;18.60;61.70;;;;;;4980513;28;19936;-64
2022/05/21 08:10:06;;;;;;;2.45;0.75;;;18.50;61.20;;;;;;4984369;28;20157;-64
2022/05/21 08:12:32;;;;;;;1.48;0.55;;;18.60;61.40;;;;;;4980913;28;20125;-64
2022/05/21 08:15:00;;;;;;;2.65;0.60;;;18.60;61.20;;;;;;4980234;28;20038;-64
2022/05/21 08:17:28;;;;;;;1.90;0.50;;;18.60;61.50;;;;;;4980210;28;20073;-64
2022/05/21 08:19:55;;;;;;;2.25;0.50;;;18.50;61.60;;;;;;4981928;28;20053;-64
2022/05/21 08:27:57;;;;;;;2.90;0.50;;;18.30;62.20;;;;;;4979496;28;20584;-64
2022/05/21 08:30:24;;;;;;;1.35;0.32;;;18.40;62.10;;;;;;4981362;28;20063;-64
2022/05/21 08:32:58;;;;;;;2.40;0.50;;;18.40;62.30;;;;;;4982295;28;20047;-63
2022/05/21 08:35:25;;;;;;;2.47;0.50;;;18.60;63.00;;;;;;4982743;28;20042;-64
2022/05/21 08:37:53;;;;;;;3.63;0.68;;;18.80;61.80;;;;;;4981607;28;20042;-64
2022/05/21 08:40:21;;;;;;;1.23;0.45;;;18.90;60.30;;;;;;4979565;28;20062;-66
2022/05/21 08:42:56;;;;;;;3.38;0.73;;;18.90;60.10;;;;;;4983920;28;20105;-64
2022/05/21 08:45:25;;;;;;;2.75;1.00;;;18.90;59.80;;;;;;4981432;28;20046;-63
2022/05/21 08:48:00;;;;;;;2.78;0.88;;;18.80;59.80;;;;;;4980290;28;20046;-64
2022/05/21 08:50:32;;;;;;;2.25;0.85;;;18.80;59.60;;;;;;4978497;28;20046;-63
2022/05/21 08:53:05;;;;;;;1.63;0.60;;;18.70;60.20;;;;;;4973233;28;20511;-64
2022/05/21 08:55:34;;;;;;;3.60;0.65;;;18.90;60.20;;;;;;4983246;28;20094;-66
2022/05/21 08:58:03;;;;;;;2.28;0.50;;;18.80;60.60;;;;;;4980581;28;20050;-64
2022/05/21 09:00:35;;;;;;;3.30;0.70;;;18.70;60.50;;;;;;4978109;28;20149;-65
2022/05/21 09:03:06;;;;;;;4.50;0.85;;;18.80;60.60;;;;;;4980569;28;20035;-66
2022/05/21 09:05:33;;;;;;;1.73;0.65;;;18.90;60.10;;;;;;4981000;28;20032;-65
2022/05/21 09:08:08;;;;;;;2.05;0.60;;;18.90;60.40;;;;;;4980116;28;20051;-65
2022/05/21 09:10:49;;;;;;;1.27;0.70;;;18.80;61.00;;;;;;4983501;28;20057;-64
2022/05/21 09:13:20;;;;;;;2.45;0.75;;;18.90;60.40;;;;;;4981419;28;20397;-64
2022/05/21 09:18:35;;;;;;;2.35;0.77;;;19.10;60.00;;;;;;4979547;28;20073;-64
2022/05/21 09:21:06;;;;;;;2.05;0.50;;;19.20;59.30;;;;;;4980220;28;20105;-66
2022/05/21 09:23:49;;;;;;;2.85;0.63;;;19.20;58.80;;;;;;4964470;28;20396;-64
2022/05/21 09:26:17;;;;;;;1.92;0.32;;;19.30;57.30;;;;;;4980442;28;20130;-64
2022/05/21 09:28:44;;;;;;;1.55;0.40;;;19.20;57.70;;;;;;4979021;28;20038;-64
2022/05/21 09:31:12;;;;;;;2.17;0.57;;;19.20;58.30;;;;;;4980028;28;20047;-66
2022/05/21 09:33:41;;;;;;;2.53;0.45;;;19.30;58.10;;;;;;4981125;28;20054;-65
2022/05/21 09:36:09;;;;;;;1.45;0.73;;;19.40;59.00;;;;;;4981983;28;20074;-64
2022/05/21 09:38:51;;;;;;;3.95;1.30;;;19.60;58.30;;;;;;4980366;28;20047;-63
2022/05/21 09:41:20;;;;;;;3.08;0.50;;;19.90;57.70;;;;;;4980967;28;20053;-64
2022/05/21 09:46:40;;;;;;;1.33;0.55;;;20.30;56.70;;;;;;4980595;28;20055;-65
2022/05/21 09:49:19;;;;;;;1.13;0.35;;;20.50;55.00;;;;;;4980482;28;20042;-64
2022/05/21 09:51:54;;;;;;;3.03;0.60;;;20.50;55.20;;;;;;4978376;28;20046;-66
2022/05/21 09:54:25;;;;;;;5.20;0.68;;;20.50;54.50;;;;;;4979646;28;20053;-64
2022/05/21 09:56:54;;;;;;;1.02;0.50;;;20.40;53.80;;;;;;4981292;28;20105;-64
2022/05/21 09:59:24;;;;;;;2.92;0.50;;;20.10;55.10;;;;;;4982081;28;20078;-65
2022/05/21 10:01:53;;;;;;;;;;;20.10;55.40;;;;;;4974566;28;20046;-65
2022/05/21 10:04:27;;;;;;;1.90;0.70;;;20.10;55.60;;;;;;4978041;28;19930;-63
2022/05/21 10:07:01;;;;;;;2.90;0.55;;;20.30;56.20;;;;;;4980587;28;20089;-64
2022/05/21 10:12:23;;;;;;;1.50;0.68;;;20.60;55.20;;;;;;4980755;28;20508;-64
2022/05/21 10:14:58;;;;;;;0.93;0.50;;;20.60;55.30;;;;;;4976375;28;20043;-64
2022/05/21 10:17:32;;;;;;;4.88;0.73;;;20.90;54.00;;;;;;4980522;28;20042;-66
2022/05/21 10:20:08;;;;;;;3.53;0.80;;;20.80;53.50;;;;;;4979328;28;20047;-66
2022/05/21 10:22:47;;;;;;;1.90;0.50;;;20.80;53.80;;;;;;4979307;28;20133;-64
2022/05/21 10:25:18;;;;;;;1.92;0.40;;;20.90;53.80;;;;;;4981768;28;20034;-66
2022/05/21 10:27:57;;;;;;;0.77;0.30;;;21.00;53.80;;;;;;4981521;28;20412;-65
2022/05/21 10:30:30;;;;;;;1.70;0.43;;;21.20;53.30;;;;;;4978531;28;20138;-65
2022/05/21 10:33:21;;;;;;;3.72;0.60;;;21.40;53.30;;;;;;4978772;28;20102;-66
2022/05/21 10:35:57;;;;;;;1.80;0.45;;;21.60;52.50;;;;;;4980145;28;20088;-64
2022/05/21 10:39:05;;;;;;;1.40;0.52;;;21.70;52.30;;;;;;4980182;28;20054;-64
2022/05/21 10:41:44;;;;;;;3.05;0.70;;;21.70;51.60;;;;;;4980514;28;20101;-66
2022/05/21 10:44:20;;;;;;;1.85;0.47;;;21.60;51.70;;;;;;4962190;28;20060;-65
2022/05/21 10:46:56;;;;;;;2.47;0.65;;;21.30;52.10;;;;;;4975560;28;20038;-66
2022/05/21 10:49:59;;;;;;;3.55;0.60;;;21.10;51.90;;;;;;4979788;28;20062;-67
2022/05/21 10:52:39;;;;;;;1.65;0.50;;;21.10;52.50;;;;;;4975280;28;20063;-64
2022/05/21 10:55:15;;;;;;;5.18;0.60;;;21.20;52.70;;;;;;4977988;28;20069;-66
2022/05/21 10:58:10;;;;;;;2.35;0.60;;;21.30;52.70;;;;;;4979606;28;20039;-64
2022/05/21 11:00:45;;;;;;;1.98;0.47;;;21.60;52.30;;;;;;4970725;28;20054;-65
2022/05/21 11:03:41;;;;;;;2.05;0.60;;;21.70;51.80;;;;;;4979227;28;20051;-66
2022/05/21 11:06:51;;;;;;;2.33;0.68;;;21.90;51.50;;;;;;4980103;28;20058;-66
2022/05/21 11:09:26;;;;;;;2.05;0.43;;;22.10;50.90;;;;;;4978221;28;20507;-66
2022/05/21 11:11:59;;;;;;;2.22;0.43;;;22.10;50.40;;;;;;4978881;28;20104;-66
2022/05/21 11:14:38;;;;;;;2.83;0.50;;;22.00;49.70;;;;;;4978935;28;20065;-64
2022/05/21 11:17:21;;;;;;;0.90;0.47;;;21.90;50.00;;;;;;4982238;28;20038;-66
2022/05/21 11:19:55;;;;;;;2.70;0.55;;;21.80;50.50;;;;;;4984061;28;20042;-66
2022/05/21 11:22:26;;;;;;;2.13;0.43;;;21.80;50.80;;;;;;4981761;28;20046;-65
2022/05/21 11:25:05;;;;;;;1.15;0.50;;;21.90;50.80;;;;;;4982061;28;20125;-64
2022/05/21 11:27:37;;;;;;;4.45;0.47;;;21.90;51.30;;;;;;4985048;28;20078;-64
2022/05/21 11:30:10;;;;;;;1.70;0.47;;;21.90;51.30;;;;;;4982059;28;20062;-67
2022/05/21 11:38:22;;;;;;;3.90;0.73;;;21.80;50.60;;;;;;4981171;28;20093;-66
2022/05/21 11:41:28;;;;;;;1.67;0.50;;;21.60;49.60;;;;;;4985323;28;20034;-65
2022/05/21 11:47:19;;;;;;;4.68;0.50;;;21.50;49.90;;;;;;4982270;28;20046;-64
2022/05/21 11:49:49;;;;;;;2.08;0.50;;;21.50;50.20;;;;;;4983518;28;20069;-64
2022/05/21 11:52:53;;;;;;;2.85;0.57;;;21.40;50.20;;;;;;4983848;28;20052;-65
2022/05/21 11:55:24;;;;;;;1.63;0.40;;;21.30;50.70;;;;;;4984238;28;20093;-65
2022/05/21 11:57:54;;;;;;;1.05;0.38;;;21.30;51.70;;;;;;4981473;28;20050;-65
2022/05/21 12:00:50;;;;;;;2.40;0.63;;;21.50;51.30;;;;;;4978018;28;20052;-65
2022/05/21 12:03:22;;;;;;;1.75;0.50;;;21.60;50.90;;;;;;4980874;28;20484;-66
2022/05/21 12:06:14;;;;;;;0.70;0.30;;;21.60;49.60;;;;;;4982745;28;20546;-65
2022/05/21 12:08:48;;;;;;;1.00;0.32;;;21.60;50.20;;;;;;4982468;28;20043;-65
2022/05/21 12:11:39;;;;;;;0.85;0.40;;;21.80;50.00;;;;;;4983847;28;20619;-64
2022/05/21 12:14:13;;;;;;;1.42;0.30;;;21.90;49.60;;;;;;4984139;28;20046;-68
2022/05/21 12:16:45;;;;;;;1.70;0.40;;;21.90;48.90;;;;;;4965107;28;20919;-68
2022/05/21 12:20:01;;;;;;;2.05;0.30;;;21.90;49.50;;;;;;4980819;28;20077;-65
2022/05/21 12:22:52;;;;;;;0.98;0.40;;;22.10;49.90;;;;;;4981394;28;20038;-65
2022/05/21 12:25:59;;;;;;;1.55;0.47;;;22.30;48.60;;;;;;4979962;28;20104;-66
2022/05/21 12:28:46;;;;;;;1.33;0.60;;;22.30;47.80;;;;;;4981460;28;20059;-66
2022/05/21 12:31:20;;;;;;;1.83;0.30;;;22.30;47.50;;;;;;4977721;28;20097;-65
2022/05/21 12:33:57;;;;;;;0.90;0.60;;;22.30;48.00;;;;;;4983381;28;20058;-65
2022/05/21 12:36:47;;;;;;;0.70;0.50;;;22.30;48.00;;;;;;4978988;28;20130;-65
2022/05/21 12:39:26;;;;;;;1.33;0.40;;;22.30;47.80;;;;;;4977932;28;20049;-69
2022/05/21 12:41:56;;;;;;;1.83;0.30;;;22.30;47.40;;;;;;4978722;28;20086;-66
2022/05/21 12:44:38;;;;;;;2.40;0.38;;;22.10;46.30;;;;;;4981846;28;20073;-65
2022/05/21 12:47:06;;;;;;;1.10;0.40;;;22.10;46.30;;;;;;4981675;28;20042;-67
2022/05/21 12:49:33;;;;;;;1.20;0.38;;;22.00;45.80;;;;;;4980910;28;20050;-66
2022/05/21 12:52:02;;;;;;;0.65;0.30;;;21.80;46.40;;;;;;4979328;28;20165;-65
2022/05/21 12:54:30;;;;;;;0.93;0.40;;;21.90;46.70;;;;;;4981153;28;20468;-64
2022/05/21 12:57:10;;;;;;;2.33;0.50;;;21.90;47.10;;;;;;4981083;28;20078;-66
2022/05/21 12:59:39;;;;;;;2.53;0.55;;;21.90;47.10;;;;;;4981635;28;20056;-65
2022/05/21 13:02:13;;;;;;;2.13;0.40;;;21.90;47.70;;;;;;4976043;28;20577;-66
2022/05/21 13:04:42;;;;;;;2.65;0.65;;;22.10;48.20;;;;;;4982801;28;20070;-66
2022/05/21 13:07:17;;;;;;;2.00;0.30;;;22.10;47.70;;;;;;4981508;28;20096;-66
2022/05/21 13:09:58;;;;;;;2.08;0.60;;;22.30;47.60;;;;;;4980601;28;20056;-65
2022/05/21 13:12:26;;;;;;;4.20;0.50;;;22.30;46.60;;;;;;4983346;28;20054;-65
2022/05/21 13:14:53;;;;;;;1.33;0.52;;;22.20;47.10;;;;;;4982973;28;20087;-66
2022/05/21 13:17:31;;;;;;;1.42;0.38;;;22.30;46.80;;;;;;4984033;28;20043;-67
2022/05/21 13:20:15;;;;;;;2.45;0.50;;;22.10;46.40;;;;;;4979897;28;20452;-67
2022/05/21 13:23:06;;;;;;;3.38;0.40;;;22.10;46.50;;;;;;4983343;28;20142;-67
2022/05/21 13:25:34;;;;;;;1.23;0.28;;;22.10;46.90;;;;;;4981743;28;20440;-66
2022/05/21 13:28:00;;;;;;;0.30;0.22;;;22.10;46.50;;;;;;4982945;28;20046;-65
2022/05/21 13:30:32;;;;;;;1.45;0.40;;;22.10;46.40;;;;;;4982348;28;20112;-64
2022/05/21 13:33:01;;;;;;;1.77;0.35;;;22.10;46.90;;;;;;4982573;28;20126;-65
2022/05/21 13:35:32;;;;;;;1.30;0.40;;;22.10;47.30;;;;;;4982717;28;20046;-65
2022/05/21 13:38:02;;;;;;;0.82;0.35;;;22.10;48.10;;;;;;4982590;28;20461;-67
2022/05/21 13:40:31;;;;;;;3.17;0.30;;;22.30;47.50;;;;;;4979335;28;20055;-64
2022/05/21 13:43:04;;;;;;;0.55;0.25;;;22.30;47.20;;;;;;4983716;28;20054;-64
2022/05/21 13:45:34;;;;;;;1.55;0.95;;;22.40;47.70;;;;;;4964352;28;20038;-66